KGAG

Gage Airport

Gage, Oklahoma, USA
METAR KGAG 241153Z AUTO 01006KT 2 1/2SM BR OVC002 00/M01 A2991 RMK AO2 SLP142 I6004 T00001006 10000 20000 56005
Observed Flight Rules
Feb-24 @ 11:53 UTC (30 minutes ago) Instrument Flight Rules
Wind Visibility Clouds Conditions
10° at 6 knots 2 1/2 miles
  • Overcast at 200' AGL
  • Mist
Temperatures Readings
Current 0°C / 32°F
Dewpoint -1°C / 30°F
Humidity 93%
Altimeter 29.91" Hg
Pressure 1014.2 hPa
Elevation 668
METAR KGAG 241153Z AUTO 01006KT 2 1/2SM BR OVC002 00/M01 A2991 RMK AO2 SLP142 I6004 T00001006 10000 20000 56005
Observed Flight Rules
Feb-24 @ 11:53 UTC
(30 minutes ago)
LIFR
Wind Visibility
10° at 6 knots 2 1/2 miles
Clouds
  • Overcast at 200' AGL
Conditions
  • Mist
Temperature Dewpoint
0°C / 32°F -1°C / 30°F
Humidity Altimeter Pressure
93% 29.91" Hg 1014.2 hPa